Time;durP1;ratioP1;P1;durP2;ratioP2;P2;SDS_P1;SDS_P2;PMS_P1;PMS_P2;Temp;Humidity;BMP_temperature;BMP_pressure;BME280_temperature;BME280_humidity;BME280_pressure;Samples;Min_cycle;Max_cycle;Signal;HPM_P1;HPM_P2
2023/08/18 00:00:08;;;;;;;14.60;11.07;;;;;;;17.20;88.72;101462.47;4824894;29;20195;-72
2023/08/18 00:02:35;;;;;;;16.87;11.30;;;;;;;17.18;88.73;101459.97;4824089;29;20237;-72
2023/08/18 00:05:02;;;;;;;16.00;11.77;;;;;;;17.19;88.58;101466.19;4824877;29;20195;-72
2023/08/18 00:07:28;;;;;;;15.17;12.73;;;;;;;17.16;89.09;101461.13;4824348;29;20211;-72
2023/08/18 00:09:55;;;;;;;14.63;11.20;;;;;;;17.16;89.41;101461.13;4824551;29;20606;-72
2023/08/18 00:12:21;;;;;;;13.80;11.60;;;;;;;17.12;89.59;101455.25;4824274;29;20243;-71
2023/08/18 00:14:48;;;;;;;20.80;13.43;;;;;;;17.10;89.67;101459.97;4824295;29;20248;-72
2023/08/18 00:17:14;;;;;;;22.43;15.07;;;;;;;17.14;89.59;101455.91;4824157;29;20253;-71
2023/08/18 00:19:40;;;;;;;23.77;14.77;;;;;;;17.11;89.51;101458.97;4824183;29;20214;-71
2023/08/18 00:22:07;;;;;;;18.97;13.73;;;;;;;17.10;89.72;101453.75;4824296;29;20237;-72
2023/08/18 00:24:35;;;;;;;34.07;15.63;;;;;;;17.12;89.98;101454.41;4824163;29;20192;-72
2023/08/18 00:27:02;;;;;;;33.40;16.13;;;;;;;17.13;89.73;101456.09;4824607;29;20702;-71
2023/08/18 00:29:28;;;;;;;37.73;17.00;;;;;;;17.17;89.93;101457.41;4822824;29;20276;-71
2023/08/18 00:31:55;;;;;;;45.07;17.83;;;;;;;17.09;90.65;101457.47;4824117;29;20580;-71
2023/08/18 00:34:22;;;;;;;46.73;18.20;;;;;;;17.07;90.01;101452.22;4824012;29;20695;-71
2023/08/18 00:36:56;;;;;;;43.40;19.87;;;;;;;17.07;90.06;101452.22;4824005;29;20179;-71
2023/08/18 00:39:23;;;;;;;41.10;19.13;;;;;;;16.98;90.65;101458.69;4824317;29;20199;-72
2023/08/18 00:41:49;;;;;;;47.13;18.90;;;;;;;16.99;90.95;101456.81;4822793;29;20214;-71
2023/08/18 00:44:18;;;;;;;36.07;17.63;;;;;;;17.00;91.07;101461.22;4824198;29;20199;-72
2023/08/18 00:46:45;;;;;;;43.30;19.33;;;;;;;17.01;90.99;101463.75;4823919;29;20253;-72
2023/08/18 00:49:12;;;;;;;39.83;18.43;;;;;;;16.98;91.16;101461.38;4823746;29;20234;-72
2023/08/18 00:51:41;;;;;;;45.47;19.27;;;;;;;16.96;91.24;101457.19;4822615;29;20203;-73
2023/08/18 00:54:10;;;;;;;34.57;16.93;;;;;;;17.00;91.36;101462.06;4822677;29;20196;-72
2023/08/18 00:56:36;;;;;;;41.17;19.40;;;;;;;16.98;91.34;101461.38;4824365;29;20207;-72
2023/08/18 00:59:05;;;;;;;33.23;15.60;;;;;;;16.99;91.47;101462.22;4822549;29;20302;-72
2023/08/18 01:01:33;;;;;;;31.60;16.00;;;;;;;17.00;91.43;101462.06;4824059;29;20212;-72
2023/08/18 01:04:00;;;;;;;43.20;19.83;;;;;;;17.01;91.25;101452.94;4822512;29;20230;-72
2023/08/18 01:06:26;;;;;;;35.10;17.40;;;;;;;17.03;91.46;101452.75;4824062;29;20197;-72
2023/08/18 01:08:53;;;;;;;41.50;20.17;;;;;;;17.02;91.56;101451.91;4823608;29;20219;-72
2023/08/18 01:11:43;;;;;;;34.73;19.13;;;;;;;17.01;91.81;101449.41;4823928;29;20201;-72
2023/08/18 01:14:22;;;;;;;40.80;20.80;;;;;;;17.03;91.49;101450.03;4826489;29;20187;-71
2023/08/18 01:16:59;;;;;;;36.67;19.47;;;;;;;17.05;91.48;101448.88;4827285;29;20183;-71
2023/08/18 01:19:26;;;;;;;32.50;17.77;;;;;;;17.04;91.62;101446.34;4825536;29;20225;-72
2023/08/18 01:21:54;;;;;;;34.87;20.20;;;;;;;17.03;91.81;101450.03;4826677;29;20253;-72
2023/08/18 01:24:24;;;;;;;34.37;19.77;;;;;;;17.07;91.75;101446.81;4826661;29;20199;-72
2023/08/18 01:26:52;;;;;;;37.47;19.10;;;;;;;17.04;92.00;101444.47;4826840;29;20625;-72
2023/08/18 01:29:21;;;;;;;51.93;20.63;;;;;;;17.04;92.01;101440.94;4826510;29;20211;-71
2023/08/18 01:31:52;;;;;;;49.33;20.13;;;;;;;17.03;91.91;101444.66;4825335;29;20202;-72
2023/08/18 01:34:23;;;;;;;35.67;18.20;;;;;;;17.01;91.89;101430.50;4825349;29;20240;-72
2023/08/18 01:36:51;;;;;;;37.33;18.37;;;;;;;17.02;91.84;101427.59;4826694;29;20195;-71
2023/08/18 01:39:20;;;;;;;41.40;18.43;;;;;;;17.00;91.88;101426.09;4826324;29;20195;-71
2023/08/18 01:41:49;;;;;;;29.33;16.93;;;;;;;17.01;92.33;101423.22;4825228;29;20716;-72
2023/08/18 01:44:16;;;;;;;27.43;16.13;;;;;;;17.08;91.86;101420.66;4826367;29;20617;-72
2023/08/18 01:46:42;;;;;;;29.33;15.67;;;;;;;17.05;92.43;101419.16;4825084;29;20610;-72
2023/08/18 01:49:09;;;;;;;31.93;17.50;;;;;;;17.07;92.00;101403.59;4824925;29;20223;-72
2023/08/18 01:51:35;;;;;;;35.73;16.50;;;;;;;17.03;92.45;101425.72;4826249;29;20202;-72
2023/08/18 01:54:02;;;;;;;24.03;16.07;;;;;;;17.05;92.44;101404.81;4826185;29;20676;-72
2023/08/18 01:56:29;;;;;;;32.93;17.03;;;;;;;17.06;92.57;101401.09;4826176;29;20260;-73
2023/08/18 01:58:56;;;;;;;32.63;15.87;;;;;;;17.04;92.12;101411.22;4824856;29;20276;-72
2023/08/18 02:01:23;;;;;;;41.67;17.60;;;;;;;17.02;92.35;101405.97;4824853;29;20203;-72
2023/08/18 02:03:49;;;;;;;38.87;19.97;;;;;;;17.12;92.37;101405.75;4826573;29;20592;-73
2023/08/18 02:06:16;;;;;;;42.13;18.13;;;;;;;17.06;92.26;101401.09;4826307;29;20191;-73
2023/08/18 02:08:42;;;;;;;41.60;18.60;;;;;;;17.05;92.46;101404.81;4825854;29;20272;-72
2023/08/18 02:11:11;;;;;;;44.20;20.10;;;;;;;17.04;92.51;101395.00;4824715;29;20614;-72
2023/08/18 02:13:37;;;;;;;51.47;20.90;;;;;;;16.99;92.50;101395.53;4824939;29;20610;-72
2023/08/18 02:16:04;;;;;;;46.33;20.53;;;;;;;17.05;92.51;101394.84;4824632;29;20256;-72
2023/08/18 02:18:32;;;;;;;41.17;19.80;;;;;;;17.02;92.73;101391.63;4826030;29;20247;-72
2023/08/18 02:21:00;;;;;;;40.83;19.40;;;;;;;17.05;92.58;101391.28;4826311;29;20252;-72
2023/08/18 02:23:28;;;;;;;44.33;19.63;;;;;;;17.04;92.94;101397.72;4824249;29;20583;-72
2023/08/18 02:26:02;;;;;;;40.20;18.53;;;;;;;17.00;92.84;101397.22;4825150;29;20605;-72
2023/08/18 02:28:31;;;;;;;35.07;18.10;;;;;;;17.02;92.84;101394.31;4824363;29;20226;-72
2023/08/18 02:31:02;;;;;;;44.77;17.87;;;;;;;17.01;92.91;101398.91;4825631;29;20199;-72
2023/08/18 02:33:29;;;;;;;32.77;16.83;;;;;;;17.03;92.87;101394.16;4825651;29;20651;-73
2023/08/18 02:35:56;;;;;;;41.03;20.30;;;;;;;17.01;93.06;101390.81;4824354;29;20625;-73
2023/08/18 02:38:22;;;;;;;33.87;16.50;;;;;;;16.99;93.25;101381.19;4824403;29;20287;-73
2023/08/18 02:40:49;;;;;;;36.87;16.63;;;;;;;16.98;92.99;101393.84;4824171;29;20260;-72
2023/08/18 02:43:15;;;;;;;37.03;17.60;;;;;;;17.02;93.15;101378.13;4825442;29;20269;-72
2023/08/18 02:45:42;;;;;;;33.07;16.67;;;;;;;16.98;93.18;101384.91;4825426;29;20665;-72
2023/08/18 02:48:11;;;;;;;32.23;16.27;;;;;;;16.99;93.34;101379.31;4824124;29;20250;-72
2023/08/18 02:50:38;;;;;;;35.33;17.10;;;;;;;17.02;93.37;101380.81;4824542;29;20264;-72
2023/08/18 02:53:06;;;;;;;38.17;17.03;;;;;;;17.00;93.03;101380.19;4825284;29;20188;-72
2023/08/18 02:55:36;;;;;;;32.70;16.13;;;;;;;16.99;93.28;101381.19;4824073;29;20214;-72
2023/08/18 02:58:03;;;;;;;30.50;16.73;;;;;;;17.01;93.30;101382.72;4824182;29;20749;-72
2023/08/18 03:00:31;;;;;;;35.60;16.10;;;;;;;17.01;93.60;101381.88;4825202;29;20669;-72
2023/08/18 03:02:58;;;;;;;33.33;16.13;;;;;;;17.00;93.35;101388.28;4825170;29;20195;-72
2023/08/18 03:05:25;;;;;;;32.27;16.97;;;;;;;16.99;93.66;101383.88;4825123;29;20195;-71
2023/08/18 03:07:51;;;;;;;35.57;16.10;;;;;;;17.00;93.54;101386.41;4825051;29;20223;-72
2023/08/18 03:10:18;;;;;;;31.93;16.80;;;;;;;16.99;93.43;101379.31;4825000;29;20215;-72
2023/08/18 03:12:44;;;;;;;35.43;16.63;;;;;;;17.02;93.48;101383.53;4825020;29;20611;-73
2023/08/18 03:15:11;;;;;;;36.43;17.53;;;;;;;16.96;93.47;101392.34;4823802;29;20199;-72
2023/08/18 03:17:37;;;;;;;36.23;17.60;;;;;;;16.96;93.65;101390.50;4823701;29;20219;-72
2023/08/18 03:20:04;;;;;;;39.93;18.07;;;;;;;16.95;93.91;101377.16;4823703;29;20249;-72
2023/08/18 03:22:34;;;;;;;39.97;18.47;;;;;;;16.95;93.65;101383.41;4823654;29;20210;-72
2023/08/18 03:25:02;;;;;;;40.23;19.50;;;;;;;16.96;93.51;101385.09;4825218;29;20188;-72
2023/08/18 03:27:29;;;;;;;36.93;17.37;;;;;;;16.98;93.68;101385.75;4823537;29;20215;-73
2023/08/18 03:29:57;;;;;;;46.50;20.03;;;;;;;16.92;93.93;101377.53;4824737;29;20211;-73
2023/08/18 03:32:25;;;;;;;37.07;16.73;;;;;;;16.94;94.11;101386.28;4825031;29;20245;-72
2023/08/18 03:34:54;;;;;;;36.70;17.57;;;;;;;16.92;93.93;101382.91;4808316;29;20203;-72
2023/08/18 03:37:21;;;;;;;43.80;19.13;;;;;;;16.89;93.28;101384.94;4823427;29;20261;-72
2023/08/18 03:39:48;;;;;;;44.07;17.53;;;;;;;16.90;93.93;101375.81;4823618;29;20203;-72
2023/08/18 03:42:14;;;;;;;48.90;19.27;;;;;;;16.87;93.99;101386.16;4823461;29;20203;-72
2023/08/18 03:44:40;;;;;;;51.97;20.73;;;;;;;16.80;94.33;101382.47;4823422;29;20199;-72
2023/08/18 03:47:07;;;;;;;70.03;22.10;;;;;;;16.78;94.25;101381.81;4823287;29;20221;-71
2023/08/18 03:49:34;;;;;;;50.03;20.60;;;;;;;16.77;94.36;101385.50;4823294;29;20219;-72
2023/08/18 03:52:01;;;;;;;54.67;21.70;;;;;;;16.82;93.96;101383.13;4823631;29;20207;-72
2023/08/18 03:54:27;;;;;;;57.17;21.93;;;;;;;16.78;94.10;101384.50;4823308;29;20206;-72
2023/08/18 03:56:54;;;;;;;54.40;22.20;;;;;;;16.81;94.09;101384.13;4823144;29;20203;-71
2023/08/18 03:59:20;;;;;;;57.80;20.90;;;;;;;16.83;94.13;101392.91;4823208;29;20199;-72
2023/08/18 04:01:47;;;;;;;44.97;20.33;;;;;;;16.86;94.23;101387.16;4823221;29;20211;-72
2023/08/18 04:04:14;;;;;;;60.97;22.07;;;;;;;16.85;94.03;101393.56;4824684;29;20203;-72
2023/08/18 04:06:40;;;;;;;55.83;21.97;;;;;;;16.82;94.46;101391.22;4824890;29;20188;-72
2023/08/18 04:09:13;;;;;;;59.10;20.93;;;;;;;16.82;94.14;101393.94;4824100;29;20230;-72
2023/08/18 04:11:40;;;;;;;58.40;23.43;;;;;;;16.81;94.22;101397.63;4824340;29;20248;-72
2023/08/18 04:14:06;;;;;;;65.80;24.60;;;;;;;16.84;93.84;101392.75;4823016;29;20211;-72
2023/08/18 04:16:33;;;;;;;54.13;22.13;;;;;;;16.82;93.86;101392.06;4824276;29;20261;-72
2023/08/18 04:19:06;;;;;;;55.33;21.53;;;;;;;16.84;93.96;101383.81;4824148;29;20207;-72
2023/08/18 04:21:34;;;;;;;52.37;20.23;;;;;;;16.80;94.23;101394.09;4823480;29;20686;-72
2023/08/18 04:24:01;;;;;;;59.13;23.23;;;;;;;16.79;93.96;101392.44;4822969;29;20206;-72
2023/08/18 04:26:29;;;;;;;70.40;25.53;;;;;;;16.78;94.09;101392.59;4823168;29;20195;-72
2023/08/18 04:28:56;;;;;;;65.00;25.03;;;;;;;16.80;94.02;101388.69;4824038;29;20306;-72
2023/08/18 04:31:22;;;;;;;73.30;26.17;;;;;;;16.81;93.69;101387.69;4822855;29;20295;-72
2023/08/18 04:33:56;;;;;;;81.97;27.37;;;;;;;16.82;93.91;101388.53;4822865;29;20295;-72
2023/08/18 04:36:22;;;;;;;75.27;27.20;;;;;;;16.77;93.76;101382.81;4822859;29;20206;-71
2023/08/18 04:38:49;;;;;;;83.83;28.20;;;;;;;16.76;93.96;101386.56;4822689;29;20294;-72
2023/08/18 04:41:21;;;;;;;70.63;24.00;;;;;;;16.83;94.43;101385.66;4822791;29;20207;-72
2023/08/18 04:43:50;;;;;;;70.47;23.87;;;;;;;16.82;93.87;101380.44;4822751;29;20628;-72
2023/08/18 04:46:17;;;;;;;62.10;23.90;;;;;;;16.80;94.01;101374.38;4823926;29;20572;-72
2023/08/18 04:48:44;;;;;;;62.80;24.63;;;;;;;16.79;93.98;101378.94;4824994;29;20305;-72
2023/08/18 04:51:11;;;;;;;57.97;22.97;;;;;;;16.78;93.93;101376.41;4825924;29;20235;-72
2023/08/18 04:53:37;;;;;;;68.43;25.17;;;;;;;16.75;93.91;101372.22;4826506;29;20602;-72
2023/08/18 04:56:04;;;;;;;61.30;21.37;;;;;;;16.79;93.89;101380.78;4825885;29;20199;-72
2023/08/18 04:58:31;;;;;;;69.40;23.13;;;;;;;16.81;93.91;101376.03;4827048;29;20621;-71
2023/08/18 05:01:00;;;;;;;58.37;22.37;;;;;;;16.79;94.10;101378.09;4825794;29;20680;-71
2023/08/18 05:03:27;;;;;;;64.03;24.07;;;;;;;16.79;94.20;101380.78;4826039;29;20215;-72
2023/08/18 05:06:08;;;;;;;62.40;23.73;;;;;;;16.80;94.16;101375.19;4825689;29;20207;-72
2023/08/18 05:08:36;;;;;;;61.90;23.57;;;;;;;16.77;94.00;101382.81;4825601;29;20223;-72
2023/08/18 05:11:05;;;;;;;61.80;22.53;;;;;;;16.80;93.95;101372.50;4826775;29;20302;-72
2023/08/18 05:13:32;;;;;;;53.00;21.17;;;;;;;16.78;94.14;101379.94;4827360;29;20202;-72
2023/08/18 05:16:02;;;;;;;59.30;20.57;;;;;;;16.77;94.11;101377.41;4826840;29;20191;-72
2023/08/18 05:18:30;;;;;;;69.57;23.30;;;;;;;16.76;94.04;101376.56;4826716;29;20268;-72
2023/08/18 05:21:00;;;;;;;67.67;22.83;;;;;;;16.76;93.87;101373.06;4826755;29;20603;-72
2023/08/18 05:23:28;;;;;;;69.10;22.67;;;;;;;16.73;94.05;101376.94;4826704;29;20240;-72
2023/08/18 05:25:55;;;;;;;61.80;23.57;;;;;;;16.75;93.84;101376.75;4827125;29;20536;-72
2023/08/18 05:28:22;;;;;;;67.83;22.40;;;;;;;16.76;93.79;101383.84;4826650;29;20600;-72
2023/08/18 05:30:49;;;;;;;66.37;24.17;;;;;;;16.74;93.94;101375.91;4826478;29;20269;-72
2023/08/18 05:33:16;;;;;;;69.50;22.60;;;;;;;16.74;94.05;101380.47;4827038;29;20692;-72
2023/08/18 05:35:43;;;;;;;84.50;24.70;;;;;;;16.73;94.13;101373.38;4827001;29;20224;-71
2023/08/18 05:38:12;;;;;;;60.47;22.07;;;;;;;16.75;93.91;101376.75;4826846;29;20215;-71
2023/08/18 05:40:48;;;;;;;73.70;22.60;;;;;;;16.77;94.28;101369.31;4826319;29;20195;-72
2023/08/18 05:43:18;;;;;;;52.20;19.20;;;;;;;16.77;94.10;101364.75;4826644;29;20252;-72
2023/08/18 05:45:46;;;;;;;66.17;22.00;;;;;;;16.81;94.19;101367.94;4826285;29;20195;-72
2023/08/18 05:48:13;;;;;;;68.63;23.00;;;;;;;16.79;94.13;101368.13;4826446;29;20236;-72
2023/08/18 05:50:40;;;;;;;69.70;22.23;;;;;;;16.79;93.78;101367.28;4826179;29;20219;-71
2023/08/18 05:53:06;;;;;;;66.60;21.50;;;;;;;16.83;93.78;101374.03;4826208;29;20195;-72
2023/08/18 05:55:33;;;;;;;68.50;23.17;;;;;;;16.79;93.94;101370.84;4826176;29;20320;-71
2023/08/18 05:58:02;;;;;;;65.10;22.33;;;;;;;16.79;94.28;101373.53;4825956;29;20229;-72
2023/08/18 06:00:30;;;;;;;61.87;21.00;;;;;;;16.80;93.85;101375.19;4826021;29;20187;-72
2023/08/18 06:02:57;;;;;;;56.30;20.70;;;;;;;16.80;94.34;101379.78;4826004;29;20200;-72
2023/08/18 06:05:27;;;;;;;67.30;21.07;;;;;;;16.86;94.23;101379.91;4826008;29;20206;-72
2023/08/18 06:07:54;;;;;;;61.63;21.10;;;;;;;16.81;93.88;101384.13;4827283;29;20568;-72
2023/08/18 06:10:21;;;;;;;58.40;21.10;;;;;;;16.83;94.26;101382.13;4825875;29;20211;-72
2023/08/18 06:12:48;;;;;;;56.23;19.00;;;;;;;16.82;93.98;101381.28;4825920;29;20206;-72
2023/08/18 06:15:16;;;;;;;53.93;18.87;;;;;;;16.81;94.46;101387.69;4826200;29;20203;-71
2023/08/18 06:17:42;;;;;;;49.03;18.63;;;;;;;16.82;94.43;101383.13;4826339;29;20565;-71
2023/08/18 06:20:09;;;;;;;55.77;19.80;;;;;;;16.81;94.22;101389.53;4826321;29;20214;-72
2023/08/18 06:22:36;;;;;;;57.50;19.53;;;;;;;16.78;94.12;101388.03;4825789;29;20255;-71
2023/08/18 06:25:07;;;;;;;43.93;19.17;;;;;;;16.79;94.09;101387.03;4825733;29;20195;-72
2023/08/18 06:27:34;;;;;;;56.50;20.37;;;;;;;16.80;94.52;101395.97;4826101;29;20276;-72
2023/08/18 06:30:00;;;;;;;67.17;21.70;;;;;;;16.82;94.51;101392.06;4825816;29;20284;-72
2023/08/18 06:32:27;;;;;;;59.60;19.13;;;;;;;16.79;94.14;101403.25;4825573;29;20202;-72
2023/08/18 06:34:54;;;;;;;53.17;19.80;;;;;;;16.84;94.18;101403.56;4825598;29;20202;-72
2023/08/18 06:37:20;;;;;;;60.83;21.20;;;;;;;16.85;94.44;101404.38;4825891;29;20211;-72
2023/08/18 06:39:47;;;;;;;72.33;19.93;;;;;;;16.87;94.34;101402.34;4825354;29;20199;-71
2023/08/18 06:42:14;;;;;;;68.07;21.47;;;;;;;16.84;94.60;101397.31;4825423;29;20199;-72
2023/08/18 06:44:40;;;;;;;56.87;18.93;;;;;;;16.84;94.50;101403.56;4825896;29;20665;-72
2023/08/18 06:47:07;;;;;;;58.07;18.97;;;;;;;16.85;94.46;101389.00;4825273;29;20195;-71
2023/08/18 06:49:33;;;;;;;55.70;20.13;;;;;;;16.87;94.38;101399.66;4825291;29;20203;-72
2023/08/18 06:52:00;;;;;;;61.77;19.47;;;;;;;16.92;94.52;101401.81;4825540;29;20226;-72
2023/08/18 06:54:26;;;;;;;55.70;19.73;;;;;;;16.92;94.37;101408.06;4825820;29;20203;-72
2023/08/18 06:56:53;;;;;;;60.60;20.17;;;;;;;16.92;94.44;101404.53;4825458;29;20207;-71
2023/08/18 06:59:19;;;;;;;41.90;18.23;;;;;;;17.00;94.30;101399.09;4825497;29;20248;-72
2023/08/18 07:01:46;;;;;;;47.07;18.33;;;;;;;16.93;94.54;101398.94;4825467;29;20243;-72
2023/08/18 07:04:12;;;;;;;38.27;16.07;;;;;;;16.94;94.71;101400.63;4825175;29;20195;-72
2023/08/18 07:06:44;;;;;;;45.57;16.90;;;;;;;16.99;94.30;101394.69;4825351;29;20195;-72
2023/08/18 07:09:11;;;;;;;45.37;15.37;;;;;;;16.99;94.48;101397.38;4825089;29;20275;-72
2023/08/18 07:11:38;;;;;;;51.50;18.37;;;;;;;17.01;94.15;101389.97;4824546;29;20283;-72
2023/08/18 07:14:04;;;;;;;52.77;17.17;;;;;;;16.97;94.42;101391.34;4825058;29;20224;-72
2023/08/18 07:16:31;;;;;;;43.53;17.07;;;;;;;16.98;94.42;101387.59;4824982;29;20244;-72
2023/08/18 07:18:57;;;;;;;43.37;17.77;;;;;;;17.00;94.55;101390.97;4824937;29;20268;-71
2023/08/18 07:21:23;;;;;;;48.70;19.73;;;;;;;17.01;94.47;101389.97;4824920;29;20252;-71
2023/08/18 07:23:50;;;;;;;58.70;18.30;;;;;;;17.00;94.41;101391.81;4824965;29;20552;-72
2023/08/18 07:26:16;;;;;;;47.40;19.50;;;;;;;17.01;94.43;101404.31;4824845;29;20240;-72
2023/08/18 07:28:43;;;;;;;50.67;19.07;;;;;;;17.01;94.71;101398.06;4825636;29;20216;-72
2023/08/18 07:31:10;;;;;;;57.67;20.03;;;;;;;17.01;94.50;101398.91;4824640;29;20243;-72
2023/08/18 07:33:36;;;;;;;51.87;19.90;;;;;;;17.04;94.87;101398.56;4825264;29;20199;-71
2023/08/18 07:36:03;;;;;;;55.20;19.93;;;;;;;17.04;94.59;101398.56;4824751;29;20252;-72
2023/08/18 07:38:34;;;;;;;59.27;20.87;;;;;;;17.09;94.86;101398.03;4825183;29;20215;-71
2023/08/18 07:41:00;;;;;;;63.37;21.87;;;;;;;17.14;94.39;101391.03;4824594;29;20199;-71
2023/08/18 07:43:27;;;;;;;57.70;21.17;;;;;;;17.12;94.27;101386.84;4824630;29;20199;-72
2023/08/18 07:45:55;;;;;;;63.53;22.63;;;;;;;17.15;94.72;101386.50;4824787;29;20656;-72
2023/08/18 07:48:22;;;;;;;62.67;23.20;;;;;;;17.14;94.46;101393.75;4824420;29;20221;-71
2023/08/18 07:50:49;;;;;;;63.77;23.00;;;;;;;17.15;94.55;101387.34;4824446;29;20265;-71
2023/08/18 07:53:16;;;;;;;68.67;24.70;;;;;;;17.17;94.31;101382.59;4824700;29;20195;-71
2023/08/18 07:55:45;;;;;;;66.53;24.03;;;;;;;17.20;94.66;101384.09;4824415;29;20187;-71
2023/08/18 07:58:11;;;;;;;72.10;23.47;;;;;;;17.22;94.57;101385.63;4824433;29;20272;-71
2023/08/18 08:00:38;;;;;;;87.80;29.57;;;;;;;17.25;94.51;101377.16;4824700;29;20191;-71
2023/08/18 08:03:04;;;;;;;85.80;28.73;;;;;;;17.29;94.57;101380.31;4824336;29;20227;-71
2023/08/18 08:05:32;;;;;;;84.30;30.20;;;;;;;17.28;94.21;101375.94;4824624;29;20199;-71
2023/08/18 08:07:59;;;;;;;83.43;28.10;;;;;;;17.33;94.51;101381.66;4824268;29;20219;-71
2023/08/18 08:10:25;;;;;;;87.00;29.60;;;;;;;17.34;94.83;101383.34;4824248;29;20367;-71
2023/08/18 08:12:52;;;;;;;78.20;28.13;;;;;;;17.34;94.37;101392.28;4824509;29;20683;-71
2023/08/18 08:15:18;;;;;;;72.20;25.37;;;;;;;17.36;94.32;101392.94;4824305;29;20183;-71
2023/08/18 08:17:45;;;;;;;60.00;23.43;;;;;;;17.43;93.62;101387.66;4824183;29;20637;-71
2023/08/18 08:20:15;;;;;;;60.40;24.67;;;;;;;17.44;93.61;101392.03;4824194;29;20179;-71
2023/08/18 08:22:48;;;;;;;56.93;23.87;;;;;;;17.49;93.75;101381.53;4825792;29;20205;-72
2023/08/18 08:25:15;;;;;;;65.53;25.07;;;;;;;17.54;93.10;101383.69;4828006;29;20187;-71
2023/08/18 08:27:42;;;;;;;61.53;26.40;;;;;;;17.51;93.36;101379.50;4827543;29;20700;-71
2023/08/18 08:30:11;;;;;;;59.97;25.70;;;;;;;17.50;93.57;101385.06;4827703;29;20706;-71
2023/08/18 08:32:52;;;;;;;60.43;25.53;;;;;;;17.53;93.77;101390.94;4827840;29;20559;-71
2023/08/18 08:35:18;;;;;;;53.93;22.37;;;;;;;17.64;93.15;101379.75;4827707;29;20560;-71
2023/08/18 08:37:45;;;;;;;51.03;23.67;;;;;;;17.62;93.01;101387.19;4827738;29;20222;-71
2023/08/18 08:40:20;;;;;;;51.40;23.80;;;;;;;17.64;92.86;101379.75;4827395;29;20207;-72
2023/08/18 08:42:49;;;;;;;42.43;20.63;;;;;;;17.71;93.08;101385.28;4827651;29;20567;-73
2023/08/18 08:45:16;;;;;;;54.60;22.33;;;;;;;17.77;93.21;101388.09;4827749;29;20391;-72
2023/08/18 08:47:43;;;;;;;60.80;25.47;;;;;;;17.78;93.13;101395.19;4827380;29;20219;-71
2023/08/18 08:50:14;;;;;;;48.93;22.77;;;;;;;17.87;92.56;101390.53;4827771;29;20546;-72
2023/08/18 08:52:41;;;;;;;46.37;22.60;;;;;;;17.85;92.34;101389.91;4827467;29;20709;-71
2023/08/18 08:55:13;;;;;;;44.60;22.53;;;;;;;17.87;92.40;101392.41;4827354;29;20582;-70
2023/08/18 08:57:40;;;;;;;42.20;20.73;;;;;;;17.92;92.35;101390.84;4827308;29;20219;-69
2023/08/18 09:00:09;;;;;;;35.77;18.30;;;;;;;17.94;92.74;101391.50;4827284;29;20195;-70
2023/08/18 09:02:36;;;;;;;38.47;17.93;;;;;;;17.92;92.58;101387.28;4827003;29;20179;-70
2023/08/18 09:05:03;;;;;;;36.87;19.47;;;;;;;17.95;92.50;101387.75;4827525;29;20203;-71
2023/08/18 09:07:30;;;;;;;35.30;19.80;;;;;;;17.98;91.90;101386.56;4827047;29;20291;-71
2023/08/18 09:09:56;;;;;;;37.23;18.67;;;;;;;18.00;92.21;101392.63;4827214;29;20210;-71
2023/08/18 09:12:28;;;;;;;38.40;19.70;;;;;;;18.03;91.74;101390.41;4827158;29;20616;-70
2023/08/18 09:14:58;;;;;;;32.83;20.33;;;;;;;18.07;91.89;101397.13;4827458;29;20597;-70
2023/08/18 09:17:28;;;;;;;44.77;22.60;;;;;;;18.16;92.46;101393.28;4826753;29;20746;-70
2023/08/18 09:19:59;;;;;;;45.47;23.33;;;;;;;18.20;91.83;101385.66;4827078;29;20192;-71
2023/08/18 09:22:27;;;;;;;44.87;23.47;;;;;;;18.19;91.79;101379.41;4826986;29;20602;-70
2023/08/18 09:24:56;;;;;;;45.77;23.93;;;;;;;18.22;91.95;101387.16;4826671;29;20251;-70
2023/08/18 09:27:23;;;;;;;37.70;21.40;;;;;;;18.26;91.70;101380.34;4826545;29;20335;-70
2023/08/18 09:29:50;;;;;;;37.80;19.27;;;;;;;18.34;91.76;101376.69;4826841;29;20191;-71
2023/08/18 09:32:16;;;;;;;29.10;18.90;;;;;;;18.37;91.40;101373.63;4826515;29;20696;-71
2023/08/18 09:34:47;;;;;;;37.50;20.60;;;;;;;18.40;91.77;101367.00;4826413;29;20612;-70
2023/08/18 09:37:16;;;;;;;49.97;23.40;;;;;;;18.39;91.41;101366.16;4826828;29;20215;-70
2023/08/18 09:39:42;;;;;;;36.87;22.20;;;;;;;18.45;91.60;101368.13;4826362;29;20203;-72
2023/08/18 09:42:10;;;;;;;42.30;21.53;;;;;;;18.52;91.07;101379.03;4826927;29;20196;-71
2023/08/18 09:44:36;;;;;;;48.30;23.07;;;;;;;18.57;91.36;101374.78;4826850;29;20252;-71
2023/08/18 09:47:05;;;;;;;52.40;23.70;;;;;;;18.62;91.62;101364.22;4826448;29;20183;-70
2023/08/18 09:49:35;;;;;;;54.47;24.33;;;;;;;18.71;91.35;101368.50;4826534;29;20644;-71
2023/08/18 09:52:04;;;;;;;51.97;24.67;;;;;;;18.77;90.98;101364.19;4826477;29;20264;-71
2023/08/18 09:54:59;;;;;;;53.87;24.37;;;;;;;18.76;90.50;101364.38;4826191;29;20196;-71
2023/08/18 09:57:32;;;;;;;43.13;22.23;;;;;;;18.83;90.88;101359.88;4826103;29;20287;-70
2023/08/18 10:00:00;;;;;;;45.07;23.00;;;;;;;18.83;90.63;101365.31;4826441;29;20180;-71
2023/08/18 10:02:36;;;;;;;43.67;24.00;;;;;;;18.86;90.10;101365.75;4826168;29;20194;-72
2023/08/18 10:05:04;;;;;;;42.37;21.23;;;;;;;18.94;89.63;101367.53;4826038;29;20195;-71
2023/08/18 10:07:31;;;;;;;34.27;21.60;;;;;;;18.96;90.00;101365.47;4826203;29;20215;-71
2023/08/18 10:09:57;;;;;;;33.60;20.13;;;;;;;19.00;89.54;101364.91;4827032;29;20590;-71
2023/08/18 10:12:24;;;;;;;37.37;21.70;;;;;;;19.05;88.76;101359.72;4826127;29;20219;-71
2023/08/18 10:14:52;;;;;;;32.33;20.93;;;;;;;19.09;89.11;101362.91;4825917;29;20195;-71
2023/08/18 10:17:23;;;;;;;30.77;21.73;;;;;;;19.21;89.49;101360.53;4825792;29;20264;-70
2023/08/18 10:19:54;;;;;;;40.67;22.40;;;;;;;19.21;88.30;101355.94;4825875;29;20559;-71
2023/08/18 10:22:24;;;;;;;30.93;20.27;;;;;;;19.25;88.21;101354.53;4826349;29;20248;-71
2023/08/18 10:24:51;;;;;;;31.23;19.90;;;;;;;19.33;88.52;101348.13;4826199;29;20195;-71
2023/08/18 10:27:26;;;;;;;31.83;21.00;;;;;;;19.37;88.41;101352.16;4825907;29;20279;-70
2023/08/18 10:30:02;;;;;;;26.00;20.07;;;;;;;19.42;88.25;101345.13;4825976;29;20187;-70
2023/08/18 10:32:32;;;;;;;30.73;20.30;;;;;;;19.50;88.68;101344.16;4825809;29;20545;-71
2023/08/18 10:35:18;;;;;;;29.70;20.10;;;;;;;19.60;88.53;101341.97;4826217;29;20183;-71
2023/08/18 10:37:48;;;;;;;24.53;18.70;;;;;;;19.71;88.47;101338.72;4825898;29;20223;-71
2023/08/18 10:40:23;;;;;;;24.67;18.50;;;;;;;19.80;87.83;101337.53;4825674;29;20231;-71
2023/08/18 10:42:52;;;;;;;29.77;20.00;;;;;;;19.87;87.98;101341.13;4825356;29;20191;-71
2023/08/18 10:45:27;;;;;;;25.17;17.93;;;;;;;19.97;87.69;101336.22;4825273;29;20188;-71
2023/08/18 10:47:57;;;;;;;21.73;17.97;;;;;;;20.05;87.61;101337.94;4825861;29;20222;-71
2023/08/18 10:50:26;;;;;;;22.30;17.63;;;;;;;20.10;87.35;101334.63;4825576;29;20215;-69
2023/08/18 10:52:55;;;;;;;26.07;20.03;;;;;;;20.18;86.96;101327.16;4825902;29;20261;-70
2023/08/18 10:55:25;;;;;;;25.60;19.27;;;;;;;20.30;87.05;101332.88;4825283;29;20277;-70
2023/08/18 10:57:51;;;;;;;26.07;19.00;;;;;;;20.44;87.06;101324.63;4825800;29;20226;-71
2023/08/18 11:00:19;;;;;;;22.53;18.37;;;;;;;20.51;86.98;101324.63;4825668;29;20609;-71
2023/08/18 11:02:49;;;;;;;26.90;19.40;;;;;;;20.60;86.70;101320.72;4825615;29;20180;-70
2023/08/18 11:05:18;;;;;;;32.07;20.87;;;;;;;20.67;86.19;101321.56;4825391;29;20257;-71
2023/08/18 11:07:45;;;;;;;33.63;22.17;;;;;;;20.70;85.57;101323.91;4825015;29;20215;-71
2023/08/18 11:10:19;;;;;;;35.27;22.07;;;;;;;20.78;86.38;101314.72;4825412;29;20250;-70
2023/08/18 11:12:47;;;;;;;35.27;21.50;;;;;;;20.85;85.58;101313.69;4825295;29;20199;-71